createdAt,value
2023-05-20T00:00:24.028Z,29.90
2023-05-20T00:02:53.465Z,29.90
2023-05-20T00:05:22.890Z,29.90
2023-05-20T00:07:52.208Z,29.90
2023-05-20T00:10:21.574Z,30.00
2023-05-20T00:12:50.953Z,30.00
2023-05-20T00:15:20.471Z,30.00
2023-05-20T00:17:49.852Z,30.00
2023-05-20T00:20:19.580Z,30.10
2023-05-20T00:22:48.940Z,30.10
2023-05-20T00:25:18.444Z,30.20
2023-05-20T00:27:48.366Z,30.20
2023-05-20T00:30:17.925Z,30.30
2023-05-20T00:32:47.536Z,30.30
2023-05-20T00:35:16.954Z,30.30
2023-05-20T00:37:46.408Z,30.40
2023-05-20T00:40:17.321Z,30.40
2023-05-20T00:42:46.795Z,30.50
2023-05-20T00:45:16.126Z,30.50
2023-05-20T00:47:46.719Z,30.60
2023-05-20T00:50:16.545Z,30.60
2023-05-20T00:52:49.213Z,30.60
2023-05-20T00:55:18.790Z,30.70
2023-05-20T00:57:48.898Z,30.70
2023-05-20T01:00:19.289Z,30.70
2023-05-20T01:02:48.971Z,30.80
2023-05-20T01:05:18.459Z,30.80
2023-05-20T01:07:48.087Z,30.90
2023-05-20T01:10:17.631Z,30.90
2023-05-20T01:12:57.494Z,30.90
2023-05-20T01:15:29.966Z,31.00
2023-05-20T01:18:19.480Z,31.10
2023-05-20T01:20:59.987Z,31.10
2023-05-20T01:23:48.824Z,31.20
2023-05-20T01:26:19.852Z,31.20
2023-05-20T01:28:54.658Z,31.30
2023-05-20T01:31:34.175Z,31.30
2023-05-20T01:34:10.160Z,31.30
2023-05-20T01:36:41.633Z,31.40
2023-05-20T01:39:11.812Z,31.40
2023-05-20T01:41:42.954Z,31.40
2023-05-20T01:44:15.695Z,31.50
2023-05-20T01:46:53.617Z,31.50
2023-05-20T01:49:23.212Z,31.60
2023-05-20T01:51:52.724Z,31.60
2023-05-20T01:54:22.467Z,31.60
2023-05-20T01:56:52.425Z,31.70
2023-05-20T01:59:21.824Z,31.80
2023-05-20T02:01:51.748Z,31.80
2023-05-20T02:04:23.584Z,31.90
2023-05-20T02:06:53.046Z,31.90
2023-05-20T02:09:22.319Z,31.90
2023-05-20T02:11:51.681Z,32.00
2023-05-20T02:14:21.047Z,32.10
2023-05-20T02:16:50.496Z,32.10
2023-05-20T02:19:24.607Z,32.20
2023-05-20T02:21:54.037Z,32.30
2023-05-20T02:24:23.435Z,32.40
2023-05-20T02:26:54.845Z,32.40
2023-05-20T02:29:24.238Z,32.50
2023-05-20T02:31:54.825Z,32.60
2023-05-20T02:34:32.462Z,32.60
2023-05-20T02:37:02.469Z,32.70
2023-05-20T02:39:35.869Z,32.70
2023-05-20T02:42:08.008Z,32.80
2023-05-20T02:44:37.344Z,32.80
2023-05-20T02:47:07.320Z,32.90
2023-05-20T02:49:36.930Z,33.00
2023-05-20T02:52:06.773Z,33.00
2023-05-20T02:54:36.741Z,33.10
2023-05-20T02:57:06.342Z,33.20
2023-05-20T02:59:35.730Z,33.30
2023-05-20T03:04:48.749Z,33.40
2023-05-20T03:07:26.548Z,33.50
2023-05-20T03:09:56.177Z,33.50
2023-05-20T03:12:27.338Z,33.60
2023-05-20T03:14:56.709Z,33.60
2023-05-20T03:17:26.134Z,33.80
2023-05-20T03:19:55.832Z,33.80
2023-05-20T03:22:25.101Z,33.90
2023-05-20T03:24:54.459Z,33.90
2023-05-20T03:27:23.905Z,34.00
2023-05-20T03:29:57.970Z,34.00
2023-05-20T03:32:34.698Z,34.10
2023-05-20T03:35:06.135Z,34.10
2023-05-20T03:37:37.088Z,34.20
2023-05-20T03:40:07.330Z,34.20
2023-05-20T03:42:37.334Z,34.30
2023-05-20T03:45:10.468Z,34.40
2023-05-20T03:47:39.956Z,34.50
2023-05-20T03:50:12.473Z,34.60
2023-05-20T03:52:42.426Z,34.70
2023-05-20T03:55:16.416Z,34.80
2023-05-20T03:57:52.111Z,34.90
2023-05-20T04:00:21.579Z,35.10
2023-05-20T04:02:51.225Z,35.10
2023-05-20T04:05:20.953Z,35.20
2023-05-20T04:07:50.822Z,35.30
2023-05-20T04:10:27.091Z,35.40
2023-05-20T04:12:56.621Z,35.40
2023-05-20T04:15:26.757Z,35.50
2023-05-20T04:17:57.070Z,35.50
2023-05-20T04:20:26.735Z,35.70
2023-05-20T04:23:00.106Z,35.80
2023-05-20T04:25:31.562Z,35.90
2023-05-20T04:28:02.455Z,36.20
2023-05-20T04:30:34.528Z,36.30
2023-05-20T04:33:07.325Z,36.40
2023-05-20T04:35:38.690Z,36.60
2023-05-20T04:38:08.553Z,36.70
2023-05-20T04:40:40.108Z,36.70
2023-05-20T04:43:09.532Z,36.80
2023-05-20T04:45:39.044Z,36.80
2023-05-20T04:48:15.217Z,36.90
2023-05-20T04:50:45.542Z,37.10
2023-05-20T04:53:15.408Z,37.20
2023-05-20T04:55:45.884Z,37.20
2023-05-20T04:58:21.455Z,37.30
2023-05-20T05:00:51.375Z,37.40
2023-05-20T05:03:20.940Z,37.60
2023-05-20T05:05:50.453Z,37.70
2023-05-20T05:08:19.793Z,37.80
2023-05-20T05:10:49.305Z,37.80
2023-05-20T05:13:21.462Z,37.90
2023-05-20T05:16:00.631Z,38.00
2023-05-20T05:18:30.353Z,38.00
2023-05-20T05:21:13.560Z,38.20
2023-05-20T05:23:43.680Z,38.20
2023-05-20T05:26:13.124Z,38.30
2023-05-20T05:28:47.218Z,38.40
2023-05-20T05:31:16.619Z,38.60
2023-05-20T05:33:45.966Z,38.60
2023-05-20T05:36:15.426Z,38.70
2023-05-20T05:38:46.040Z,38.70
2023-05-20T05:41:15.450Z,38.70
2023-05-20T05:43:44.765Z,38.60
2023-05-20T05:46:14.192Z,38.60
2023-05-20T05:48:44.155Z,38.70
2023-05-20T05:51:13.464Z,38.70
2023-05-20T05:53:43.203Z,38.80
2023-05-20T05:56:13.033Z,38.90
2023-05-20T05:58:42.437Z,38.90
2023-05-20T06:01:11.799Z,39.00
2023-05-20T06:03:41.301Z,39.10
2023-05-20T06:06:10.704Z,39.20
2023-05-20T06:08:40.021Z,39.30
2023-05-20T06:11:11.390Z,39.30
2023-05-20T06:13:40.870Z,39.30
2023-05-20T06:16:10.295Z,39.40
2023-05-20T06:18:39.693Z,39.40
2023-05-20T06:21:09.054Z,39.40
2023-05-20T06:23:38.325Z,39.40
2023-05-20T06:26:07.714Z,39.50
2023-05-20T06:28:37.153Z,39.50
2023-05-20T06:31:07.340Z,39.60
2023-05-20T06:33:37.749Z,39.60
2023-05-20T06:36:07.225Z,39.70
2023-05-20T06:38:36.698Z,39.70
2023-05-20T06:41:06.398Z,39.70
2023-05-20T06:43:35.745Z,39.80
2023-05-20T06:46:05.423Z,39.80
2023-05-20T06:48:34.902Z,39.80
2023-05-20T06:51:05.568Z,39.90
2023-05-20T06:53:36.201Z,39.90
2023-05-20T06:56:05.657Z,39.90
2023-05-20T06:58:35.539Z,39.90
2023-05-20T07:01:05.012Z,39.90
2023-05-20T07:03:34.414Z,39.90
2023-05-20T07:06:03.992Z,40.00
2023-05-20T07:08:33.359Z,40.00
2023-05-20T07:11:14.220Z,40.10
2023-05-20T07:13:43.599Z,40.20
2023-05-20T07:16:12.937Z,40.40
2023-05-20T07:18:42.410Z,40.50
2023-05-20T07:21:11.823Z,40.60
2023-05-20T07:23:41.405Z,40.70
2023-05-20T07:26:10.743Z,40.70
2023-05-20T07:28:41.208Z,40.70
2023-05-20T07:31:10.555Z,40.70
2023-05-20T07:33:40.047Z,40.60
2023-05-20T07:36:11.068Z,40.50
2023-05-20T07:38:56.483Z,40.50
2023-05-20T07:41:30.613Z,40.40
2023-05-20T07:43:59.934Z,40.40
2023-05-20T07:46:29.321Z,40.40
2023-05-20T07:48:58.980Z,40.40
2023-05-20T07:51:28.533Z,40.30
2023-05-20T07:53:58.282Z,40.30
2023-05-20T07:56:27.710Z,40.40
2023-05-20T07:59:00.987Z,40.40
2023-05-20T08:01:30.713Z,40.50
2023-05-20T08:04:00.270Z,40.50
2023-05-20T08:06:30.040Z,40.50
2023-05-20T08:08:59.529Z,40.50
2023-05-20T08:11:29.135Z,40.40
2023-05-20T08:13:58.540Z,40.40
2023-05-20T08:16:27.882Z,40.40
2023-05-20T08:18:57.312Z,40.50
2023-05-20T08:21:26.695Z,40.50
2023-05-20T08:23:56.351Z,40.50
2023-05-20T08:26:25.646Z,40.50
2023-05-20T08:28:55.008Z,40.50
2023-05-20T08:31:24.404Z,40.50
2023-05-20T08:33:53.827Z,40.50
2023-05-20T08:36:23.274Z,40.50
2023-05-20T08:38:53.931Z,40.60
2023-05-20T08:41:23.743Z,40.60
2023-05-20T08:43:54.801Z,40.60
2023-05-20T08:46:25.115Z,40.60
2023-05-20T08:48:54.518Z,40.60
2023-05-20T08:51:28.204Z,40.60
2023-05-20T08:53:58.292Z,40.60
2023-05-20T08:56:31.119Z,40.60
2023-05-20T08:59:00.904Z,40.60
2023-05-20T09:01:30.406Z,40.60
2023-05-20T09:04:06.301Z,40.70
2023-05-20T09:06:50.770Z,40.80
2023-05-20T09:09:31.310Z,40.90
2023-05-20T09:12:05.288Z,40.90
2023-05-20T09:14:35.027Z,40.80
2023-05-20T09:17:05.940Z,40.80
2023-05-20T09:19:35.983Z,40.80
2023-05-20T09:22:07.111Z,40.80
2023-05-20T09:24:36.547Z,40.70
2023-05-20T09:27:06.450Z,40.70
2023-05-20T09:29:36.208Z,40.70
2023-05-20T09:32:14.067Z,40.70
2023-05-20T09:34:56.643Z,40.70
2023-05-20T09:37:31.968Z,40.80
2023-05-20T09:40:10.648Z,40.70
2023-05-20T09:42:58.600Z,40.70
2023-05-20T09:45:28.238Z,40.70
2023-05-20T09:47:59.140Z,40.60
2023-05-20T09:50:29.921Z,40.60
2023-05-20T09:53:04.886Z,40.60
2023-05-20T09:55:35.456Z,40.60
2023-05-20T09:58:05.700Z,40.50
2023-05-20T10:00:35.600Z,40.40
2023-05-20T10:03:05.760Z,40.40
2023-05-20T10:05:43.247Z,40.30
2023-05-20T10:08:49.995Z,40.20
2023-05-20T10:11:37.823Z,40.20
2023-05-20T10:14:33.481Z,40.10
2023-05-20T10:17:30.214Z,40.10
2023-05-20T10:20:05.890Z,40.00
2023-05-20T10:22:36.030Z,39.90
2023-05-20T10:25:11.202Z,39.80
2023-05-20T10:27:49.401Z,39.70
2023-05-20T10:30:23.863Z,39.70
2023-05-20T10:33:06.011Z,39.60
2023-05-20T10:35:35.474Z,39.60
2023-05-20T10:38:14.486Z,39.50
2023-05-20T10:40:44.446Z,39.40
2023-05-20T10:43:27.632Z,39.40
2023-05-20T10:46:04.828Z,39.30
2023-05-20T10:48:36.053Z,39.20
2023-05-20T10:51:06.061Z,39.20
2023-05-20T10:53:46.729Z,39.00
2023-05-20T10:56:25.229Z,39.00
2023-05-20T10:58:58.001Z,38.90
2023-05-20T11:01:28.979Z,38.80
2023-05-20T11:04:02.576Z,38.80
2023-05-20T11:06:42.020Z,38.70
2023-05-20T11:09:27.648Z,38.60
2023-05-20T11:11:57.221Z,38.50
2023-05-20T11:14:29.323Z,38.40
2023-05-20T11:19:40.661Z,38.20
2023-05-20T11:22:10.538Z,38.00
2023-05-20T11:24:40.171Z,37.90
2023-05-20T11:27:15.479Z,37.80
2023-05-20T11:29:45.070Z,37.70
2023-05-20T11:32:15.065Z,37.60
2023-05-20T11:37:33.081Z,37.40
2023-05-20T11:40:11.035Z,37.30
2023-05-20T11:42:40.334Z,37.20
2023-05-20T11:45:15.446Z,37.10
2023-05-20T11:48:05.437Z,37.10
2023-05-20T11:50:45.678Z,36.90
2023-05-20T11:53:21.033Z,36.80
2023-05-20T11:56:01.423Z,36.70
2023-05-20T11:58:34.104Z,36.60
2023-05-20T12:01:17.944Z,36.50
2023-05-20T12:03:52.138Z,36.40
2023-05-20T12:06:23.077Z,36.20
2023-05-20T12:09:06.356Z,36.10
2023-05-20T12:11:47.748Z,36.10
2023-05-20T12:14:17.203Z,36.00
2023-05-20T12:16:46.787Z,35.90
2023-05-20T12:19:17.110Z,35.80
2023-05-20T12:21:48.466Z,35.80
2023-05-20T12:24:17.844Z,35.70
2023-05-20T12:26:47.214Z,35.70
2023-05-20T12:29:16.883Z,35.60
2023-05-20T12:31:50.544Z,35.60
2023-05-20T12:34:20.027Z,35.50
2023-05-20T12:36:49.629Z,35.50
2023-05-20T12:39:20.672Z,35.50
2023-05-20T12:41:50.393Z,35.40
2023-05-20T12:44:21.446Z,35.40
2023-05-20T12:46:50.824Z,35.40
2023-05-20T12:49:22.766Z,35.40
2023-05-20T12:51:52.231Z,35.40
2023-05-20T12:54:22.773Z,35.40
2023-05-20T12:56:52.276Z,35.40
2023-05-20T12:59:22.130Z,35.40
2023-05-20T13:01:51.523Z,35.40
2023-05-20T13:04:21.178Z,35.40
2023-05-20T13:06:50.755Z,35.30
2023-05-20T13:09:22.076Z,35.30
2023-05-20T13:11:51.475Z,35.30
2023-05-20T13:14:20.912Z,35.30
2023-05-20T13:16:55.525Z,35.30
2023-05-20T13:19:26.262Z,35.20
2023-05-20T13:22:02.612Z,35.20
2023-05-20T13:24:54.611Z,35.20
2023-05-20T13:27:24.213Z,35.20
2023-05-20T13:29:53.551Z,35.20
2023-05-20T13:32:27.976Z,35.20
2023-05-20T13:34:58.174Z,35.20
2023-05-20T13:37:27.922Z,35.20
2023-05-20T13:39:57.222Z,35.20
2023-05-20T13:42:26.458Z,35.20
2023-05-20T13:44:55.954Z,35.20
2023-05-20T13:47:28.088Z,35.10
2023-05-20T13:50:03.487Z,35.10
2023-05-20T13:52:35.722Z,35.10
2023-05-20T13:57:50.759Z,35.10
2023-05-20T14:00:20.218Z,35.00
2023-05-20T14:02:49.688Z,35.00
2023-05-20T14:05:20.076Z,35.00
2023-05-20T14:07:49.521Z,35.00
2023-05-20T14:10:19.003Z,34.90
2023-05-20T14:12:49.255Z,34.90
2023-05-20T14:15:18.704Z,34.90
2023-05-20T14:17:58.390Z,34.90
2023-05-20T14:20:29.540Z,34.90
2023-05-20T14:25:45.344Z,34.80
2023-05-20T14:28:23.577Z,34.80
2023-05-20T14:30:55.711Z,34.80
2023-05-20T14:33:28.365Z,34.80
2023-05-20T14:35:57.905Z,34.80
2023-05-20T14:38:30.541Z,34.70
2023-05-20T14:41:00.016Z,34.70
2023-05-20T14:43:29.561Z,34.70
2023-05-20T14:46:01.562Z,34.70
2023-05-20T14:48:31.000Z,34.60
2023-05-20T14:51:00.277Z,34.60
2023-05-20T14:53:29.587Z,34.60
2023-05-20T14:55:59.047Z,34.50
2023-05-20T14:58:28.547Z,34.50
2023-05-20T15:01:02.745Z,34.50
2023-05-20T15:03:32.800Z,34.50
2023-05-20T15:06:02.233Z,34.50
2023-05-20T15:08:31.709Z,34.40
2023-05-20T15:11:01.327Z,34.40
2023-05-20T15:13:30.736Z,34.30
2023-05-20T15:16:03.107Z,34.30
2023-05-20T15:18:35.445Z,34.30
2023-05-20T15:21:06.930Z,34.20
2023-05-20T15:23:36.301Z,34.20
2023-05-20T15:26:06.506Z,34.10
2023-05-20T15:28:38.920Z,34.20
2023-05-20T15:31:08.999Z,34.10
2023-05-20T15:33:38.650Z,34.10
2023-05-20T15:36:08.402Z,34.10
2023-05-20T15:38:37.794Z,34.10
2023-05-20T15:41:07.771Z,34.00
2023-05-20T15:43:37.303Z,34.00
2023-05-20T15:46:06.997Z,34.00
2023-05-20T15:48:38.858Z,34.00
2023-05-20T15:51:08.391Z,33.90
2023-05-20T15:53:39.373Z,33.90
2023-05-20T15:56:12.552Z,33.80
2023-05-20T15:58:42.162Z,33.80
2023-05-20T16:01:11.700Z,33.80
2023-05-20T16:03:41.882Z,33.80
2023-05-20T16:06:16.050Z,33.70
2023-05-20T16:08:48.464Z,33.70
2023-05-20T16:11:17.794Z,33.70
2023-05-20T16:13:47.114Z,33.60
2023-05-20T16:16:17.842Z,33.60
2023-05-20T16:18:48.643Z,33.50
2023-05-20T16:21:18.183Z,33.50
2023-05-20T16:23:47.696Z,33.50
2023-05-20T16:26:17.277Z,33.40
2023-05-20T16:28:46.660Z,33.40
2023-05-20T16:31:16.102Z,33.30
2023-05-20T16:33:45.843Z,33.30
2023-05-20T16:36:15.186Z,33.30
2023-05-20T16:38:44.570Z,33.20
2023-05-20T16:41:15.965Z,33.20
2023-05-20T16:43:45.750Z,33.10
2023-05-20T16:46:15.532Z,33.10
2023-05-20T16:48:45.173Z,33.10
2023-05-20T16:51:14.494Z,33.10
2023-05-20T16:53:43.897Z,33.00
2023-05-20T16:56:13.168Z,33.00
2023-05-20T16:58:42.704Z,33.00
2023-05-20T17:01:12.410Z,32.90
2023-05-20T17:03:41.957Z,32.90
2023-05-20T17:06:11.416Z,32.80
2023-05-20T17:08:40.898Z,32.80
2023-05-20T17:11:10.272Z,32.80
2023-05-20T17:13:42.527Z,32.80
2023-05-20T17:16:13.025Z,32.70
2023-05-20T17:18:42.774Z,32.70
2023-05-20T17:21:13.159Z,32.70
2023-05-20T17:23:43.842Z,32.60
2023-05-20T17:26:13.204Z,32.60
2023-05-20T17:28:42.700Z,32.50
2023-05-20T17:31:12.514Z,32.50
2023-05-20T17:33:41.889Z,32.40
2023-05-20T17:36:11.602Z,32.40
2023-05-20T17:38:40.933Z,32.40
2023-05-20T17:41:10.325Z,32.40
2023-05-20T17:43:39.655Z,32.30
2023-05-20T17:46:09.053Z,32.30
2023-05-20T17:48:38.523Z,32.20
2023-05-20T17:51:08.109Z,32.20
2023-05-20T17:53:37.419Z,32.20
2023-05-20T17:56:07.370Z,32.20
2023-05-20T17:58:42.027Z,32.10
2023-05-20T18:01:11.630Z,32.10
2023-05-20T18:03:41.740Z,32.00
2023-05-20T18:06:11.305Z,32.00
2023-05-20T18:08:40.769Z,31.90
2023-05-20T18:11:15.813Z,31.90
2023-05-20T18:13:45.659Z,31.90
2023-05-20T18:16:15.305Z,31.90
2023-05-20T18:18:45.197Z,31.80
2023-05-20T18:21:14.785Z,31.80
2023-05-20T18:23:44.108Z,31.80
2023-05-20T18:26:13.684Z,31.70
2023-05-20T18:28:43.352Z,31.70
2023-05-20T18:31:13.029Z,31.70
2023-05-20T18:33:42.649Z,31.70
2023-05-20T18:36:12.196Z,31.60
2023-05-20T18:38:42.091Z,31.60
2023-05-20T18:41:11.700Z,31.50
2023-05-20T18:43:41.080Z,31.50
2023-05-20T18:46:10.476Z,31.50
2023-05-20T18:48:39.850Z,31.50
2023-05-20T18:51:09.311Z,31.40
2023-05-20T18:53:38.706Z,31.40
2023-05-20T18:56:08.955Z,31.40
2023-05-20T18:58:38.363Z,31.40
2023-05-20T19:01:08.237Z,31.30
2023-05-20T19:03:38.113Z,31.30
2023-05-20T19:06:07.748Z,31.30
2023-05-20T19:08:37.366Z,31.30
2023-05-20T19:11:07.114Z,31.30
2023-05-20T19:13:36.635Z,31.20
2023-05-20T19:16:06.740Z,31.20
2023-05-20T19:18:37.269Z,31.20
2023-05-20T19:21:06.972Z,31.20
2023-05-20T19:23:36.364Z,31.20
2023-05-20T19:26:05.771Z,31.10
2023-05-20T19:28:35.258Z,31.10
2023-05-20T19:31:04.698Z,31.10
2023-05-20T19:33:34.124Z,31.10
2023-05-20T19:36:03.480Z,31.00
2023-05-20T19:38:32.812Z,31.00
2023-05-20T19:41:02.152Z,31.00
2023-05-20T19:43:31.738Z,31.00
2023-05-20T19:46:10.575Z,30.90
2023-05-20T19:48:39.999Z,30.90
2023-05-20T19:51:11.486Z,30.90
2023-05-20T19:53:40.943Z,30.90
2023-05-20T19:56:10.388Z,30.90
2023-05-20T19:58:39.797Z,30.90
2023-05-20T20:01:09.238Z,30.90
2023-05-20T20:03:38.669Z,30.90
2023-05-20T20:06:08.100Z,30.90
2023-05-20T20:08:40.478Z,30.90
2023-05-20T20:11:10.450Z,30.90
2023-05-20T20:13:39.804Z,30.90
2023-05-20T20:16:09.579Z,30.90
2023-05-20T20:18:39.153Z,30.90
2023-05-20T20:21:10.244Z,30.90
2023-05-20T20:23:40.244Z,30.80
2023-05-20T20:26:10.970Z,30.80
2023-05-20T20:28:40.619Z,30.70
2023-05-20T20:31:09.960Z,30.70
2023-05-20T20:33:39.293Z,30.70
2023-05-20T20:36:10.163Z,30.60
2023-05-20T20:38:39.718Z,30.60
2023-05-20T20:41:10.652Z,30.60
2023-05-20T20:43:39.996Z,30.70
2023-05-20T20:46:10.365Z,30.70
2023-05-20T20:48:39.789Z,30.60
2023-05-20T20:51:09.084Z,30.60
2023-05-20T20:53:38.461Z,30.60
2023-05-20T20:56:07.915Z,30.60
2023-05-20T20:58:38.678Z,30.60
2023-05-20T21:01:08.844Z,30.60
2023-05-20T21:03:41.331Z,30.60
2023-05-20T21:06:10.796Z,30.50
2023-05-20T21:08:40.534Z,30.50
2023-05-20T21:11:10.024Z,30.50
2023-05-20T21:13:40.653Z,30.40
2023-05-20T21:16:10.842Z,30.40
2023-05-20T21:18:40.659Z,30.30
2023-05-20T21:21:13.263Z,30.30
2023-05-20T21:23:43.212Z,30.30
2023-05-20T21:26:12.470Z,30.30
2023-05-20T21:28:41.876Z,30.30
2023-05-20T21:31:11.316Z,30.30
2023-05-20T21:33:41.153Z,30.30
2023-05-20T21:36:10.828Z,30.30
2023-05-20T21:38:40.313Z,30.30
2023-05-20T21:41:10.038Z,30.30
2023-05-20T21:43:39.540Z,30.30
2023-05-20T21:46:08.984Z,30.30
2023-05-20T21:48:38.332Z,30.30
2023-05-20T21:51:07.696Z,30.40
2023-05-20T21:53:36.980Z,30.40
2023-05-20T21:56:06.597Z,30.40
2023-05-20T21:58:41.818Z,30.30
2023-05-20T22:01:11.741Z,30.30
2023-05-20T22:03:41.231Z,30.30
2023-05-20T22:06:12.235Z,30.30
2023-05-20T22:08:42.005Z,30.30
2023-05-20T22:11:11.371Z,30.30
2023-05-20T22:13:42.726Z,30.30
2023-05-20T22:16:12.247Z,30.30
2023-05-20T22:18:42.421Z,30.20
2023-05-20T22:21:12.197Z,30.20
2023-05-20T22:23:42.810Z,30.20
2023-05-20T22:26:12.246Z,30.20
2023-05-20T22:28:41.624Z,30.20
2023-05-20T22:31:11.112Z,30.10
2023-05-20T22:33:42.394Z,30.10
2023-05-20T22:36:11.769Z,30.10
2023-05-20T22:38:41.069Z,30.10
2023-05-20T22:41:10.515Z,30.10
2023-05-20T22:43:39.939Z,30.10
2023-05-20T22:46:09.394Z,30.00
2023-05-20T22:48:38.815Z,30.00
2023-05-20T22:51:09.938Z,30.00
2023-05-20T22:53:39.405Z,30.00
2023-05-20T22:56:09.836Z,30.00
2023-05-20T22:58:40.765Z,30.00
2023-05-20T23:01:10.183Z,30.00
2023-05-20T23:03:41.185Z,30.00
2023-05-20T23:06:10.540Z,30.00
2023-05-20T23:08:39.914Z,30.00
2023-05-20T23:11:09.256Z,30.00
2023-05-20T23:13:38.658Z,30.00
2023-05-20T23:16:08.858Z,30.00
2023-05-20T23:18:38.918Z,30.00
2023-05-20T23:21:08.515Z,30.10
2023-05-20T23:23:37.848Z,30.10
2023-05-20T23:26:07.312Z,30.10
2023-05-20T23:28:36.681Z,30.10
2023-05-20T23:31:06.013Z,30.10
2023-05-20T23:33:35.445Z,30.10
2023-05-20T23:36:05.051Z,30.10
2023-05-20T23:38:34.468Z,30.10
2023-05-20T23:41:03.819Z,30.20
2023-05-20T23:43:33.157Z,30.20
2023-05-20T23:46:02.622Z,30.30
2023-05-20T23:48:31.921Z,30.30
2023-05-20T23:51:01.549Z,30.30
2023-05-20T23:53:31.167Z,30.30
2023-05-20T23:56:00.669Z,30.40
2023-05-20T23:58:29.974Z,30.40
